X  Zatvori METAR podaci zračne luke        LGTS Thessaloniki Macedonia International
Temperatura
68°F Temperatura
46°F Točka rosišta
46% Vlaga



Vjetar
9 MPS
15 KM/S
4 M/S
8 Čvorovi



140°
JI
Trenutna situacija

Mostly Sunny Većinom sunčano
Tlak zraka 1017 (hPa) - 30.03 (inHg)
Vidljivost 6 (milje) - 10 (km)
Zračna luka
Kôd zračne luke LGTS

Lokacija: Thessaloniki Macedonia International
Udaljenost: 85 (mi)

Metar:
METAR LGTS 241450Z 14008KT 080V170 9999 FEW030 20/08 Q1017 NOSIG

Vrijeme: 24-02-2024 16:50 EET